Time;durP1;ratioP1;P1;durP2;ratioP2;P2;SDS_P1;SDS_P2;PMS_P1;PMS_P2;Temp;Humidity;BMP_temperature;BMP_pressure;BME280_temperature;BME280_humidity;BME280_pressure;Samples;Min_cycle;Max_cycle;Signal;HPM_P1;HPM_P2
2023/05/18 00:02:26;;;;;;;3.30;1.77;;;;;;;;;;5058945;28;20239;-52
2023/05/18 00:04:52;;;;;;;7.10;2.10;;;;;;;;;;5054545;28;20234;-52
2023/05/18 00:07:19;;;;;;;3.70;1.87;;;;;;;;;;5055175;27;20722;-54
2023/05/18 00:09:46;;;;;;;4.67;1.80;;;;;;;;;;5047756;27;20228;-53
2023/05/18 00:12:12;;;;;;;3.47;2.27;;;;;;;;;;5060667;27;20272;-53
2023/05/18 00:14:39;;;;;;;4.07;1.30;;;;;;;;;;5064484;27;20972;-54
2023/05/18 00:17:05;;;;;;;1.90;1.43;;;;;;;;;;5065867;27;20235;-53
2023/05/18 00:19:33;;;;;;;5.10;1.87;;;;;;;;;;5064065;28;20231;-53
2023/05/18 00:22:01;;;;;;;5.23;1.80;;;;;;;;;;5064719;28;20592;-52
2023/05/18 00:24:27;;;;;;;2.73;1.60;;;;;;;;;;5060072;28;20803;-53
2023/05/18 00:26:54;;;;;;;2.27;1.17;;;;;;;;;;5063455;28;20258;-52
2023/05/18 00:29:20;;;;;;;5.90;2.20;;;;;;;;;;5060496;28;20235;-54
2023/05/18 00:31:47;;;;;;;2.73;1.30;;;;;;;;;;5059834;28;20238;-53
2023/05/18 00:34:14;;;;;;;3.37;1.57;;;;;;;;;;5062012;27;20300;-52
2023/05/18 00:36:43;;;;;;;4.97;1.63;;;;;;;;;;5067460;28;20227;-53
2023/05/18 00:39:10;;;;;;;3.00;1.50;;;;;;;;;;5052777;28;20714;-52
2023/05/18 00:41:37;;;;;;;5.03;1.80;;;;;;;;;;5051523;28;20232;-53
2023/05/18 00:44:07;;;;;;;3.20;1.30;;;;;;;;;;5052326;28;20234;-53
2023/05/18 00:46:33;;;;;;;4.83;1.90;;;;;;;;;;5069737;27;20355;-54
2023/05/18 00:49:01;;;;;;;5.80;1.43;;;;;;;;;;5058525;28;20255;-52
2023/05/18 00:51:28;;;;;;;4.93;1.63;;;;;;;;;;5039126;28;20822;-52
2023/05/18 00:53:56;;;;;;;6.37;1.73;;;;;;;;;;5061181;28;20223;-52
2023/05/18 00:56:23;;;;;;;3.60;1.77;;;;;;;;;;5059987;28;20659;-53
2023/05/18 00:58:52;;;;;;;3.37;1.77;;;;;;;;;;5051146;28;20259;-52
2023/05/18 01:01:19;;;;;;;3.33;1.07;;;;;;;;;;5053124;28;20231;-53
2023/05/18 01:03:45;;;;;;;3.33;1.63;;;;;;;;;;5053883;28;20602;-53
2023/05/18 01:06:13;;;;;;;10.73;1.77;;;;;;;;;;5057099;28;20230;-53
2023/05/18 01:08:40;;;;;;;2.73;1.40;;;;;;;;;;5053762;28;20542;-54
2023/05/18 01:11:15;;;;;;;2.80;2.00;;;;;;;;;;5053813;28;20882;-54
2023/05/18 01:13:49;;;;;;;4.63;1.47;;;;;;;;;;5037701;28;20737;-53
2023/05/18 01:16:18;;;;;;;3.17;1.37;;;;;;;;;;5050327;28;20242;-53
2023/05/18 01:18:47;;;;;;;3.47;2.13;;;;;;;;;;5058045;28;20310;-53
2023/05/18 01:21:19;;;;;;;3.77;1.90;;;;;;;;;;5054216;28;20236;-53
2023/05/18 01:23:53;;;;;;;2.93;1.33;;;;;;;;;;5046758;28;20228;-53
2023/05/18 01:26:28;;;;;;;3.70;1.60;;;;;;;;;;5043468;28;20230;-52
2023/05/18 01:28:56;;;;;;;5.60;1.30;;;;;;;;;;5049680;28;20600;-53
2023/05/18 01:31:23;;;;;;;5.20;1.57;;;;;;;;;;5062300;28;20234;-54
2023/05/18 01:33:49;;;;;;;2.43;1.27;;;;;;;;;;5049218;28;20250;-53
2023/05/18 01:36:16;;;;;;;2.37;1.60;;;;;;;;;;5047215;28;20239;-54
2023/05/18 01:38:44;;;;;;;4.07;1.43;;;;;;;;;;5049418;28;20258;-53
2023/05/18 01:41:13;;;;;;;5.93;2.27;;;;;;;;;;5058148;27;20242;-53
2023/05/18 01:43:44;;;;;;;1.87;1.67;;;;;;;;;;5048165;28;20243;-51
2023/05/18 01:46:13;;;;;;;4.30;1.90;;;;;;;;;;5045150;28;20225;-52
2023/05/18 01:48:43;;;;;;;3.73;1.83;;;;;;;;;;5051285;28;20224;-53
2023/05/18 01:51:11;;;;;;;4.40;1.60;;;;;;;;;;5055896;28;20232;-54
2023/05/18 01:53:39;;;;;;;6.40;2.50;;;;;;;;;;5058398;27;20240;-53
2023/05/18 01:56:07;;;;;;;7.13;1.97;;;;;;;;;;5061027;28;20227;-52
2023/05/18 01:58:34;;;;;;;2.90;2.13;;;;;;;;;;5059824;28;20318;-53
2023/05/18 02:01:02;;;;;;;3.47;1.57;;;;;;;;;;5063569;28;20231;-53
2023/05/18 02:03:31;;;;;;;5.53;1.97;;;;;;;;;;5050335;28;20717;-53
2023/05/18 02:05:57;;;;;;;4.83;1.40;;;;;;;;;;5042286;28;20263;-52
2023/05/18 02:08:24;;;;;;;5.00;1.60;;;;;;;;;;5051866;28;20598;-52
2023/05/18 02:10:52;;;;;;;4.00;1.30;;;;;;;;;;5054109;28;20231;-53
2023/05/18 02:13:19;;;;;;;4.53;2.37;;;;;;;;;;5048272;28;20235;-53
2023/05/18 02:15:45;;;;;;;2.33;1.70;;;;;;;;;;5057420;28;20227;-54
2023/05/18 02:18:13;;;;;;;5.07;2.17;;;;;;;;;;5056315;28;20228;-52
2023/05/18 02:20:40;;;;;;;4.33;1.93;;;;;;;;;;5047454;28;20228;-52
2023/05/18 02:23:07;;;;;;;3.07;1.70;;;;;;;;;;5046196;28;20725;-53
2023/05/18 02:25:34;;;;;;;2.23;1.60;;;;;;;;;;5051316;28;20235;-51
2023/05/18 02:28:00;;;;;;;5.53;2.27;;;;;;;;;;5052311;28;20220;-52
2023/05/18 02:30:28;;;;;;;4.60;1.67;;;;;;;;;;5044810;28;20714;-52
2023/05/18 02:32:54;;;;;;;2.70;1.40;;;;;;;;;;5063762;28;20301;-51
2023/05/18 02:35:22;;;;;;;3.57;1.57;;;;;;;;;;5068574;28;20230;-54
2023/05/18 02:37:49;;;;;;;5.93;1.80;;;;;;;;;;5054557;28;20227;-53
2023/05/18 02:40:16;;;;;;;5.87;1.50;;;;;;;;;;5049619;28;20716;-53
2023/05/18 02:42:43;;;;;;;4.10;1.43;;;;;;;;;;5047171;28;20271;-53
2023/05/18 02:45:10;;;;;;;2.80;1.37;;;;;;;;;;5056107;28;20717;-53
2023/05/18 02:47:37;;;;;;;7.03;2.13;;;;;;;;;;5050812;28;20228;-53
2023/05/18 02:50:03;;;;;;;2.93;1.60;;;;;;;;;;5052159;27;20318;-52
2023/05/18 02:52:32;;;;;;;4.07;1.77;;;;;;;;;;5058581;28;20620;-53
2023/05/18 02:54:59;;;;;;;7.37;1.67;;;;;;;;;;5047202;28;20300;-53
2023/05/18 02:57:26;;;;;;;5.00;1.83;;;;;;;;;;5060066;28;20319;-52
2023/05/18 02:59:53;;;;;;;2.03;1.53;;;;;;;;;;5059768;28;20277;-53
2023/05/18 03:02:22;;;;;;;3.20;1.87;;;;;;;;;;5051580;28;20246;-52
2023/05/18 03:04:52;;;;;;;5.63;2.40;;;;;;;;;;5046705;28;20262;-53
2023/05/18 03:07:19;;;;;;;3.63;1.57;;;;;;;;;;5052157;28;20231;-55
2023/05/18 03:09:47;;;;;;;3.73;1.30;;;;;;;;;;5045015;28;20228;-53
2023/05/18 03:12:13;;;;;;;4.37;1.87;;;;;;;;;;5049595;28;20233;-52
2023/05/18 03:14:40;;;;;;;5.10;1.77;;;;;;;;;;5050056;28;20239;-54
2023/05/18 03:17:07;;;;;;;4.63;1.70;;;;;;;;;;5043518;28;20227;-53
2023/05/18 03:19:34;;;;;;;3.77;1.60;;;;;;;;;;5046908;28;20224;-53
2023/05/18 03:22:02;;;;;;;6.13;1.90;;;;;;;;;;5062025;28;20257;-55
2023/05/18 03:24:39;;;;;;;7.00;1.90;;;;;;;;;;5049057;28;20231;-53
2023/05/18 03:27:07;;;;;;;3.57;2.27;;;;;;;;;;5050520;28;20725;-53
2023/05/18 03:29:34;;;;;;;2.97;1.90;;;;;;;;;;5047806;28;20227;-53
2023/05/18 03:32:00;;;;;;;4.07;2.37;;;;;;;;;;5045847;28;20279;-53
2023/05/18 03:34:27;;;;;;;6.37;1.87;;;;;;;;;;5058110;28;20272;-53
2023/05/18 03:36:54;;;;;;;6.10;1.87;;;;;;;;;;5060694;28;20238;-53
2023/05/18 03:39:21;;;;;;;2.43;2.00;;;;;;;;;;5057169;28;20249;-53
2023/05/18 03:41:47;;;;;;;3.63;2.20;;;;;;;;;;5052716;28;20236;-53
2023/05/18 03:44:16;;;;;;;6.87;2.60;;;;;;;;;;5052144;28;20231;-52
2023/05/18 03:46:42;;;;;;;7.00;2.40;;;;;;;;;;5052100;28;20220;-53
2023/05/18 03:49:09;;;;;;;6.83;3.17;;;;;;;;;;5051933;28;20232;-53
2023/05/18 03:51:36;;;;;;;1.93;1.67;;;;;;;;;;5049204;28;20265;-53
2023/05/18 03:54:03;;;;;;;3.30;1.90;;;;;;;;;;5051812;28;20239;-54
2023/05/18 03:56:30;;;;;;;7.13;2.23;;;;;;;;;;5057593;28;20226;-54
2023/05/18 03:58:57;;;;;;;4.70;2.50;;;;;;;;;;5056558;28;20635;-53
2023/05/18 04:01:29;;;;;;;4.97;2.20;;;;;;;;;;5063750;28;20235;-53
2023/05/18 04:03:56;;;;;;;5.23;2.73;;;;;;;;;;5058369;28;20235;-54
2023/05/18 04:06:24;;;;;;;4.37;2.70;;;;;;;;;;5054860;28;20608;-52
2023/05/18 04:08:51;;;;;;;4.30;2.60;;;;;;;;;;5052474;28;20227;-53
2023/05/18 04:11:18;;;;;;;5.63;2.60;;;;;;;;;;5053263;28;20285;-52
2023/05/18 04:13:45;;;;;;;6.30;2.37;;;;;;;;;;5060019;28;20699;-53
2023/05/18 04:16:12;;;;;;;4.43;2.57;;;;;;;;;;5061587;28;20231;-52
2023/05/18 04:18:40;;;;;;;6.43;2.53;;;;;;;;;;5050947;28;20263;-52
2023/05/18 04:21:07;;;;;;;7.27;2.37;;;;;;;;;;5052700;28;21752;-53
2023/05/18 04:23:37;;;;;;;4.60;3.20;;;;;;;;;;5072477;28;20226;-53
2023/05/18 04:26:04;;;;;;;6.03;2.37;;;;;;;;;;5064246;28;20228;-52
2023/05/18 04:28:31;;;;;;;6.03;2.90;;;;;;;;;;5051380;28;20622;-53
2023/05/18 04:30:58;;;;;;;4.50;2.50;;;;;;;;;;5050208;28;20242;-53
2023/05/18 04:33:24;;;;;;;3.57;2.40;;;;;;;;;;5050502;28;20699;-54
2023/05/18 04:35:54;;;;;;;7.97;2.47;;;;;;;;;;5049359;28;20314;-52
2023/05/18 04:38:22;;;;;;;6.17;3.23;;;;;;;;;;5048219;28;20227;-53
2023/05/18 04:40:48;;;;;;;6.23;3.17;;;;;;;;;;5058707;28;20259;-52
2023/05/18 04:43:16;;;;;;;6.87;2.83;;;;;;;;;;5055809;28;20235;-52
2023/05/18 04:45:45;;;;;;;5.90;2.53;;;;;;;;;;5052188;28;20246;-53
2023/05/18 04:48:13;;;;;;;5.20;2.47;;;;;;;;;;5051643;28;20228;-55
2023/05/18 04:50:40;;;;;;;6.67;2.47;;;;;;;;;;5052057;28;20231;-52
2023/05/18 04:53:10;;;;;;;3.50;2.10;;;;;;;;;;5060735;28;20273;-53
2023/05/18 04:55:37;;;;;;;5.83;2.43;;;;;;;;;;5056888;28;20744;-54
2023/05/18 04:58:04;;;;;;;4.03;2.67;;;;;;;;;;5052033;28;20278;-53
2023/05/18 05:00:31;;;;;;;3.73;2.10;;;;;;;;;;5062119;28;20724;-52
2023/05/18 05:02:58;;;;;;;7.93;2.43;;;;;;;;;;5057368;28;20623;-53
2023/05/18 05:05:25;;;;;;;5.63;2.10;;;;;;;;;;5068279;28;20292;-54
2023/05/18 05:07:52;;;;;;;3.40;2.20;;;;;;;;;;5060151;28;20258;-53
2023/05/18 05:10:21;;;;;;;3.77;2.17;;;;;;;;;;5052568;28;20651;-53
2023/05/18 05:12:48;;;;;;;7.77;2.67;;;;;;;;;;5057872;28;20238;-55
2023/05/18 05:15:15;;;;;;;3.83;2.00;;;;;;;;;;5086823;28;20222;-53
2023/05/18 05:17:41;;;;;;;3.17;1.77;;;;;;;;;;5056582;28;20237;-53
2023/05/18 05:20:08;;;;;;;5.60;2.77;;;;;;;;;;5051787;28;20689;-53
2023/05/18 05:22:35;;;;;;;2.97;1.87;;;;;;;;;;5058271;28;20231;-53
2023/05/18 05:25:02;;;;;;;5.33;2.47;;;;;;;;;;5066516;28;20236;-54
2023/05/18 05:27:30;;;;;;;7.30;2.53;;;;;;;;;;5069676;28;20304;-53
2023/05/18 05:29:57;;;;;;;6.07;1.53;;;;;;;;;;5049597;28;20551;-54
2023/05/18 05:32:23;;;;;;;2.83;1.73;;;;;;;;;;5069906;28;20235;-52
2023/05/18 05:34:50;;;;;;;5.00;1.90;;;;;;;;;;5053931;28;20320;-53
2023/05/18 05:37:18;;;;;;;5.70;1.97;;;;;;;;;;5053755;28;20330;-53
2023/05/18 05:39:44;;;;;;;8.43;1.83;;;;;;;;;;5056693;28;20307;-53
2023/05/18 05:42:11;;;;;;;4.50;2.33;;;;;;;;;;5057304;27;20330;-53
2023/05/18 05:44:39;;;;;;;4.27;1.83;;;;;;;;;;5060983;28;20223;-53
2023/05/18 05:47:06;;;;;;;6.57;2.97;;;;;;;;;;5054010;28;20250;-53
2023/05/18 05:49:33;;;;;;;5.97;1.77;;;;;;;;;;5059470;28;20257;-52
2023/05/18 05:51:59;;;;;;;4.90;2.60;;;;;;;;;;5047885;28;20300;-52
2023/05/18 05:54:26;;;;;;;4.30;2.07;;;;;;;;;;5063054;28;20235;-53
2023/05/18 05:56:53;;;;;;;3.83;1.90;;;;;;;;;;5052276;28;20227;-53
2023/05/18 05:59:20;;;;;;;2.07;1.50;;;;;;;;;;5060160;28;20235;-52
2023/05/18 06:01:48;;;;;;;5.97;1.70;;;;;;;;;;5054742;28;21936;-53
2023/05/18 06:04:15;;;;;;;4.87;2.40;;;;;;;;;;5062388;28;20219;-55
2023/05/18 06:06:42;;;;;;;4.10;2.00;;;;;;;;;;5062782;28;20239;-52
2023/05/18 06:09:09;;;;;;;3.23;1.57;;;;;;;;;;5062260;28;20234;-54
2023/05/18 06:11:36;;;;;;;6.03;2.27;;;;;;;;;;5061205;28;20288;-52
2023/05/18 06:14:02;;;;;;;5.27;1.77;;;;;;;;;;5058201;28;20227;-54
2023/05/18 06:16:29;;;;;;;4.97;1.93;;;;;;;;;;5053910;28;20904;-53
2023/05/18 06:18:57;;;;;;;4.63;2.10;;;;;;;;;;5046598;28;20232;-53
2023/05/18 06:21:24;;;;;;;7.87;2.37;;;;;;;;;;5059268;28;20231;-54
2023/05/18 06:23:50;;;;;;;3.10;1.97;;;;;;;;;;5061252;28;20236;-53
2023/05/18 06:26:17;;;;;;;4.70;1.83;;;;;;;;;;5056596;28;20238;-53
2023/05/18 06:28:44;;;;;;;5.10;1.60;;;;;;;;;;5048621;28;20737;-52
2023/05/18 06:31:11;;;;;;;4.63;2.30;;;;;;;;;;5058325;28;20713;-52
2023/05/18 06:33:38;;;;;;;5.88;2.05;;;;;;;;;;5058666;28;20231;-52
2023/05/18 06:36:06;;;;;;;2.95;1.70;;;;;;;;;;5059887;28;21366;-54
2023/05/18 06:38:33;;;;;;;6.70;2.23;;;;;;;;;;5057886;27;20232;-54
2023/05/18 06:40:59;;;;;;;6.07;2.03;;;;;;;;;;5058310;27;20224;-52
2023/05/18 06:43:27;;;;;;;6.15;2.72;;;;;;;;;;5062240;28;20248;-53
2023/05/18 06:45:54;;;;;;;5.03;1.43;;;;;;;;;;5062118;28;20219;-53
2023/05/18 06:48:22;;;;;;;4.15;1.83;;;;;;;;;;5056471;28;20238;-53
2023/05/18 06:50:48;;;;;;;5.00;2.10;;;;;;;;;;5051950;28;20235;-53
2023/05/18 06:53:16;;;;;;;6.00;1.27;;;;;;;;;;5058260;28;20231;-53
2023/05/18 06:55:43;;;;;;;5.07;2.15;;;;;;;;;;5060768;28;20235;-53
2023/05/18 06:58:10;;;;;;;3.33;1.38;;;;;;;;;;5050760;28;20314;-53
2023/05/18 07:00:37;;;;;;;2.88;1.48;;;;;;;;;;5058982;28;20706;-59
2023/05/18 07:03:04;;;;;;;8.00;2.08;;;;;;;;;;5060179;28;20322;-53
2023/05/18 07:05:30;;;;;;;5.28;1.70;;;;;;;;;;5054550;28;20290;-53
2023/05/18 07:07:57;;;;;;;7.13;2.33;;;;;;;;;;5053628;28;20302;-54
2023/05/18 07:10:27;;;;;;;4.10;1.67;;;;;;;;;;5055186;28;20319;-52
2023/05/18 07:12:54;;;;;;;5.30;2.05;;;;;;;;;;5061366;28;20257;-53
2023/05/18 07:15:24;;;;;;;3.45;1.73;;;;;;;;;;5061244;27;20235;-54
2023/05/18 07:17:51;;;;;;;3.17;1.73;;;;;;;;;;5049511;28;20315;-52
2023/05/18 07:20:18;;;;;;;9.40;2.22;;;;;;;;;;5059340;28;20239;-53
2023/05/18 07:22:44;;;;;;;3.63;1.50;;;;;;;;;;5055647;28;20231;-52
2023/05/18 07:25:11;;;;;;;3.88;1.40;;;;;;;;;;5060035;28;20238;-54
2023/05/18 07:27:39;;;;;;;3.25;1.25;;;;;;;;;;5062581;28;20314;-53
2023/05/18 07:30:06;;;;;;;6.35;2.05;;;;;;;;;;5064218;28;20227;-60
2023/05/18 07:32:33;;;;;;;3.13;1.08;;;;;;;;;;5066426;28;20235;-53
2023/05/18 07:34:59;;;;;;;6.15;1.90;;;;;;;;;;5060864;28;20235;-52
2023/05/18 07:37:26;;;;;;;3.28;1.55;;;;;;;;;;5059741;28;20235;-53
2023/05/18 07:39:53;;;;;;;3.25;1.40;;;;;;;;;;5051256;28;20269;-54
2023/05/18 07:42:19;;;;;;;4.22;1.75;;;;;;;;;;5058360;28;20242;-52
2023/05/18 07:44:47;;;;;;;7.60;1.63;;;;;;;;;;5057699;28;20696;-53
2023/05/18 07:47:14;;;;;;;3.70;1.55;;;;;;;;;;5050794;28;20227;-54
2023/05/18 07:49:41;;;;;;;4.45;1.73;;;;;;;;;;5058110;28;20846;-53
2023/05/18 07:52:08;;;;;;;4.10;1.92;;;;;;;;;;5055088;28;20296;-54
2023/05/18 07:54:35;;;;;;;4.70;1.60;;;;;;;;;;5048182;28;20239;-52
2023/05/18 07:57:03;;;;;;;3.63;1.52;;;;;;;;;;5054862;28;20262;-52
2023/05/18 07:59:29;;;;;;;4.22;1.73;;;;;;;;;;5050100;28;20228;-52
2023/05/18 08:01:57;;;;;;;5.10;1.45;;;;;;;;;;5061413;28;20229;-52
2023/05/18 08:04:24;;;;;;;3.95;1.70;;;;;;;;;;5059598;28;20239;-52
2023/05/18 08:06:53;;;;;;;2.60;1.20;;;;;;;;;;5055416;28;20317;-52
2023/05/18 08:09:20;;;;;;;5.43;2.03;;;;;;;;;;5048833;28;20236;-53
2023/05/18 08:11:47;;;;;;;3.35;1.52;;;;;;;;;;5049856;28;20264;-52
2023/05/18 08:14:14;;;;;;;4.90;1.70;;;;;;;;;;5052513;28;20249;-52
2023/05/18 08:16:41;;;;;;;3.65;1.67;;;;;;;;;;5053702;28;20231;-53
2023/05/18 08:19:09;;;;;;;3.50;1.25;;;;;;;;;;5052965;28;20227;-53
2023/05/18 08:21:35;;;;;;;5.45;1.55;;;;;;;;;;5054836;28;20227;-52
2023/05/18 08:24:02;;;;;;;4.43;1.88;;;;;;;;;;5055973;28;20230;-53
2023/05/18 08:26:29;;;;;;;4.45;1.35;;;;;;;;;;5052664;28;20675;-52
2023/05/18 08:28:56;;;;;;;3.95;1.50;;;;;;;;;;5054240;28;20235;-53
2023/05/18 08:31:22;;;;;;;2.55;1.45;;;;;;;;;;5060802;28;20231;-53
2023/05/18 08:33:49;;;;;;;6.45;2.08;;;;;;;;;;5052990;28;20244;-53
2023/05/18 08:36:17;;;;;;;2.78;1.30;;;;;;;;;;5059025;28;20219;-53
2023/05/18 08:38:44;;;;;;;4.07;1.95;;;;;;;;;;5061618;28;20693;-53
2023/05/18 08:41:15;;;;;;;5.10;1.67;;;;;;;;;;5059413;28;20426;-54
2023/05/18 08:43:42;;;;;;;4.38;1.60;;;;;;;;;;5066573;28;20721;-53
2023/05/18 08:46:11;;;;;;;4.95;2.05;;;;;;;;;;5054889;28;20315;-52
2023/05/18 08:48:38;;;;;;;2.58;1.42;;;;;;;;;;5054313;28;20366;-53
2023/05/18 08:51:06;;;;;;;3.88;1.60;;;;;;;;;;5056951;28;20228;-53
2023/05/18 08:53:34;;;;;;;5.35;1.73;;;;;;;;;;5052997;28;20235;-53
2023/05/18 08:56:01;;;;;;;2.03;1.00;;;;;;;;;;5054805;28;20231;-53
2023/05/18 08:58:32;;;;;;;2.17;1.40;;;;;;;;;;5064969;28;20848;-53
2023/05/18 09:00:59;;;;;;;5.60;1.77;;;;;;;;;;5060626;28;20257;-53
2023/05/18 09:03:25;;;;;;;6.53;1.85;;;;;;;;;;5049794;28;20231;-52
2023/05/18 09:05:52;;;;;;;3.42;1.58;;;;;;;;;;5063131;28;20231;-53
2023/05/18 09:08:19;;;;;;;2.60;1.80;;;;;;;;;;5060494;28;20326;-52
2023/05/18 09:10:47;;;;;;;5.20;1.52;;;;;;;;;;5065501;28;20233;-54
2023/05/18 09:13:14;;;;;;;2.55;1.38;;;;;;;;;;5063571;28;20235;-53
2023/05/18 09:15:41;;;;;;;3.60;1.95;;;;;;;;;;5065953;28;20343;-52
2023/05/18 09:18:07;;;;;;;3.08;1.58;;;;;;;;;;5060186;28;20287;-58
2023/05/18 09:20:33;;;;;;;3.20;2.00;;;;;;;;;;5074413;28;20848;-56
2023/05/18 09:23:00;;;;;;;3.30;1.90;;;;;;;;;;5069971;28;20258;-54
2023/05/18 09:25:27;;;;;;;2.17;1.25;;;;;;;;;;5065558;28;20262;-53
2023/05/18 09:27:54;;;;;;;4.75;1.70;;;;;;;;;;5063232;28;20223;-53
2023/05/18 09:30:21;;;;;;;4.85;2.17;;;;;;;;;;5063524;28;20235;-53
2023/05/18 09:32:47;;;;;;;4.70;1.50;;;;;;;;;;5061856;28;20755;-52
2023/05/18 09:35:14;;;;;;;5.75;1.63;;;;;;;;;;5064803;28;20231;-53
2023/05/18 09:37:41;;;;;;;2.13;1.30;;;;;;;;;;5065060;28;20227;-52
2023/05/18 09:40:07;;;;;;;2.95;1.20;;;;;;;;;;5051723;28;20228;-52
2023/05/18 09:42:37;;;;;;;5.20;1.58;;;;;;;;;;5059274;28;20235;-53
2023/05/18 09:45:14;;;;;;;4.53;1.95;;;;;;;;;;5065442;28;20234;-51
2023/05/18 09:47:41;;;;;;;4.88;1.33;;;;;;;;;;5058018;28;20238;-52
2023/05/18 09:50:08;;;;;;;4.22;1.55;;;;;;;;;;5063423;28;20353;-54
2023/05/18 09:52:40;;;;;;;1.65;1.20;;;;;;;;;;5061758;28;20708;-54
2023/05/18 09:55:07;;;;;;;3.25;1.42;;;;;;;;;;5063829;28;20241;-52
2023/05/18 09:57:39;;;;;;;6.40;1.95;;;;;;;;;;5056193;28;20235;-53
2023/05/18 10:00:09;;;;;;;7.18;1.50;;;;;;;;;;5054712;28;20274;-53
2023/05/18 10:02:37;;;;;;;3.97;1.48;;;;;;;;;;5052018;28;20240;-53
2023/05/18 10:05:04;;;;;;;2.75;1.23;;;;;;;;;;5043037;28;20698;-53
2023/05/18 10:07:31;;;;;;;5.82;2.08;;;;;;;;;;5054745;28;20238;-53
2023/05/18 10:10:00;;;;;;;4.40;1.38;;;;;;;;;;5052485;28;20235;-51
2023/05/18 10:12:27;;;;;;;1.77;1.10;;;;;;;;;;5058971;28;20342;-52
2023/05/18 10:14:53;;;;;;;3.72;1.75;;;;;;;;;;5062433;28;20280;-52
2023/05/18 10:17:24;;;;;;;2.97;1.65;;;;;;;;;;5056631;28;20314;-53
2023/05/18 10:19:52;;;;;;;9.27;2.45;;;;;;;;;;5059628;28;20739;-53
2023/05/18 10:22:21;;;;;;;9.38;1.92;;;;;;;;;;5051281;28;21414;-53
2023/05/18 10:24:50;;;;;;;5.22;1.40;;;;;;;;;;5053447;28;20223;-52
2023/05/18 10:27:17;;;;;;;3.75;1.65;;;;;;;;;;5051776;28;21321;-53
2023/05/18 10:29:45;;;;;;;3.13;1.60;;;;;;;;;;5047399;28;20736;-54
2023/05/18 10:32:12;;;;;;;4.50;1.90;;;;;;;;;;5049640;28;20722;-53
2023/05/18 10:34:40;;;;;;;3.33;1.77;;;;;;;;;;5051772;28;20322;-53
2023/05/18 10:37:07;;;;;;;4.03;1.35;;;;;;;;;;5057238;28;20238;-52
2023/05/18 10:39:35;;;;;;;5.43;1.77;;;;;;;;;;5049870;28;20227;-53
2023/05/18 10:42:02;;;;;;;3.22;1.52;;;;;;;;;;5059353;28;20238;-53
2023/05/18 10:44:29;;;;;;;3.20;1.38;;;;;;;;;;5051870;28;20227;-53
2023/05/18 10:46:56;;;;;;;5.72;1.58;;;;;;;;;;5049809;28;20232;-53
2023/05/18 10:49:24;;;;;;;4.00;1.60;;;;;;;;;;5058098;28;20872;-52
2023/05/18 10:51:52;;;;;;;4.03;1.70;;;;;;;;;;5058817;28;20314;-53
2023/05/18 10:54:19;;;;;;;5.13;1.60;;;;;;;;;;5053145;28;20249;-53
2023/05/18 10:56:49;;;;;;;2.25;1.25;;;;;;;;;;5053820;28;20238;-53
2023/05/18 10:59:17;;;;;;;3.13;1.27;;;;;;;;;;5052211;28;20281;-53
2023/05/18 11:01:44;;;;;;;5.28;3.00;;;;;;;;;;5049364;28;20239;-53
2023/05/18 11:04:11;;;;;;;3.25;1.40;;;;;;;;;;5060282;28;20230;-54
2023/05/18 11:06:38;;;;;;;1.90;1.40;;;;;;;;;;5067059;28;20351;-53
2023/05/18 11:09:06;;;;;;;2.80;1.23;;;;;;;;;;5058609;28;20383;-54
2023/05/18 11:11:50;;;;;;;5.32;1.55;;;;;;;;;;5054750;28;20261;-54
2023/05/18 11:14:24;;;;;;;9.70;1.45;;;;;;;;;;5054048;28;20223;-52
2023/05/18 11:16:51;;;;;;;6.47;1.52;;;;;;;;;;5050854;28;20234;-52
2023/05/18 11:19:19;;;;;;;7.38;2.08;;;;;;;;;;5047485;28;20247;-52
2023/05/18 11:21:52;;;;;;;3.38;1.42;;;;;;;;;;5057660;28;20238;-52
2023/05/18 11:24:24;;;;;;;2.97;1.45;;;;;;;;;;5055964;28;20242;-53
2023/05/18 11:26:51;;;;;;;1.73;1.27;;;;;;;;;;5057601;28;20701;-52
2023/05/18 11:29:19;;;;;;;2.33;0.98;;;;;;;;;;5059583;28;20258;-53
2023/05/18 11:31:46;;;;;;;3.13;1.83;;;;;;;;;;5057803;28;20231;-52
2023/05/18 11:34:33;;;;;;;4.28;1.75;;;;;;;;;;5058443;28;20755;-51
2023/05/18 11:37:00;;;;;;;2.50;1.35;;;;;;;;;;5052347;28;20642;-53
2023/05/18 11:39:28;;;;;;;3.40;1.30;;;;;;;;;;5053804;28;20770;-53
2023/05/18 11:42:00;;;;;;;5.20;1.63;;;;;;;;;;5052373;28;20235;-56
2023/05/18 11:44:27;;;;;;;6.05;1.85;;;;;;;;;;5056067;28;20243;-59
2023/05/18 11:46:55;;;;;;;10.10;1.88;;;;;;;;;;5063182;28;20824;-53
2023/05/18 11:49:23;;;;;;;2.70;1.27;;;;;;;;;;5056547;28;20246;-53
2023/05/18 11:51:56;;;;;;;5.57;1.83;;;;;;;;;;5060576;28;20238;-54
2023/05/18 11:54:23;;;;;;;3.60;1.70;;;;;;;;;;5060887;28;20239;-53
2023/05/18 11:56:51;;;;;;;3.05;1.50;;;;;;;;;;5056750;28;20272;-53
2023/05/18 11:59:29;;;;;;;4.93;1.60;;;;;;;;;;5052636;28;20405;-54
2023/05/18 12:01:56;;;;;;;3.42;1.38;;;;;;;;;;5067936;28;20314;-57
2023/05/18 12:04:23;;;;;;;4.40;1.80;;;;;;;;;;5064901;28;20329;-53
2023/05/18 12:06:51;;;;;;;3.38;1.45;;;;;;;;;;5062565;28;20286;-53
2023/05/18 12:09:18;;;;;;;4.25;1.65;;;;;;;;;;5048802;28;20232;-53
2023/05/18 12:11:44;;;;;;;4.82;1.80;;;;;;;;;;5060190;28;20271;-54
2023/05/18 12:14:12;;;;;;;4.32;1.65;;;;;;;;;;5067052;28;20313;-54
2023/05/18 12:16:39;;;;;;;7.63;1.92;;;;;;;;;;5063543;28;20310;-53
2023/05/18 12:19:06;;;;;;;12.80;2.60;;;;;;;;;;5065541;28;20885;-53
2023/05/18 12:21:34;;;;;;;4.13;1.98;;;;;;;;;;5064502;28;20293;-54
2023/05/18 12:24:01;;;;;;;5.53;1.77;;;;;;;;;;5054765;28;20227;-52
2023/05/18 12:26:28;;;;;;;7.40;2.70;;;;;;;;;;5070612;28;20235;-53
2023/05/18 12:28:54;;;;;;;2.95;1.27;;;;;;;;;;5063167;28;20246;-52
2023/05/18 12:31:25;;;;;;;3.55;1.75;;;;;;;;;;5056436;28;20231;-53
2023/05/18 12:33:52;;;;;;;3.67;1.50;;;;;;;;;;5060796;28;20263;-52
2023/05/18 12:36:18;;;;;;;3.88;2.03;;;;;;;;;;5056746;28;20235;-54
2023/05/18 12:38:48;;;;;;;3.47;1.40;;;;;;;;;;5050169;28;20242;-54
2023/05/18 12:41:21;;;;;;;3.45;1.52;;;;;;;;;;5056332;28;20234;-53
2023/05/18 12:43:47;;;;;;;2.63;1.65;;;;;;;;;;5061229;28;20239;-53
2023/05/18 12:46:14;;;;;;;4.95;1.92;;;;;;;;;;5051308;28;20256;-53
2023/05/18 12:48:45;;;;;;;4.70;1.90;;;;;;;;;;5056428;28;20310;-53
2023/05/18 12:51:17;;;;;;;3.75;1.65;;;;;;;;;;5047359;28;20226;-53
2023/05/18 12:53:44;;;;;;;3.08;1.50;;;;;;;;;;5052298;28;20835;-53
2023/05/18 12:56:11;;;;;;;5.00;1.73;;;;;;;;;;5047889;28;20309;-54
2023/05/18 12:58:39;;;;;;;4.85;1.95;;;;;;;;;;5051749;28;20877;-52
2023/05/18 13:01:08;;;;;;;5.28;1.65;;;;;;;;;;5057256;28;20231;-53
2023/05/18 13:03:36;;;;;;;3.45;1.40;;;;;;;;;;5052106;28;20617;-53
2023/05/18 13:06:04;;;;;;;4.20;1.50;;;;;;;;;;5055952;28;20238;-54
2023/05/18 13:08:31;;;;;;;5.63;1.85;;;;;;;;;;5063423;28;20755;-53
2023/05/18 13:11:00;;;;;;;6.82;1.33;;;;;;;;;;5062212;28;20233;-53
2023/05/18 13:13:26;;;;;;;2.60;1.45;;;;;;;;;;5049325;28;20231;-52
2023/05/18 13:15:53;;;;;;;4.25;1.98;;;;;;;;;;5037078;28;20620;-53
2023/05/18 13:18:19;;;;;;;4.40;1.50;;;;;;;;;;5044184;28;20231;-53
2023/05/18 13:20:49;;;;;;;6.25;2.10;;;;;;;;;;5061945;28;20237;-53
2023/05/18 13:23:18;;;;;;;3.50;1.67;;;;;;;;;;5047517;28;20235;-54
2023/05/18 13:27:39;;;;;;;2.35;1.35;;;;;;;;;;5084930;27;20580;-53
2023/05/18 13:30:08;;;;;;;2.75;1.33;;;;;;;;;;5086429;27;20233;-52
2023/05/18 13:32:35;;;;;;;6.70;1.50;;;;;;;;;;5099095;27;20234;-53
2023/05/18 13:35:01;;;;;;;2.97;1.40;;;;;;;;;;5095595;27;20230;-54
2023/05/18 13:37:28;;;;;;;7.97;1.75;;;;;;;;;;5095161;27;20234;-53
2023/05/18 13:39:54;;;;;;;7.75;1.98;;;;;;;;;;5100879;27;20320;-52
2023/05/18 13:42:20;;;;;;;3.70;1.52;;;;;;;;;;5098339;27;20657;-52
2023/05/18 13:44:48;;;;;;;1.63;1.45;;;;;;;;;;5100079;27;20225;-52
2023/05/18 13:47:14;;;;;;;3.00;1.52;;;;;;;;;;5096716;27;20234;-54
2023/05/18 13:49:41;;;;;;;4.63;1.83;;;;;;;;;;5111912;27;20233;-54
2023/05/18 13:52:07;;;;;;;4.13;1.52;;;;;;;;;;5102250;27;20320;-55
2023/05/18 13:54:34;;;;;;;3.33;1.90;;;;;;;;;;5106595;27;20269;-53
2023/05/18 13:57:01;;;;;;;7.22;1.52;;;;;;;;;;5112168;27;20656;-52
2023/05/18 13:59:27;;;;;;;3.00;1.45;;;;;;;;;;5113994;27;20237;-54
2023/05/18 14:01:55;;;;;;;5.03;1.88;;;;;;;;;;5097393;27;20727;-53
2023/05/18 14:04:21;;;;;;;4.47;1.27;;;;;;;;;;5101893;28;20242;-53
2023/05/18 14:06:48;;;;;;;3.25;1.30;;;;;;;;;;5098372;27;20234;-53
2023/05/18 14:09:14;;;;;;;2.90;1.33;;;;;;;;;;5097208;27;20237;-53
2023/05/18 14:11:41;;;;;;;2.40;1.38;;;;;;;;;;5098664;27;20327;-53
2023/05/18 14:14:07;;;;;;;2.00;1.30;;;;;;;;;;5107256;27;20238;-54
2023/05/18 14:16:35;;;;;;;2.88;1.45;;;;;;;;;;5106801;27;20218;-58
2023/05/18 14:19:03;;;;;;;5.05;1.70;;;;;;;;;;5095807;27;20227;-54
2023/05/18 14:21:30;;;;;;;2.88;1.73;;;;;;;;;;5103983;27;20244;-52
2023/05/18 14:23:56;;;;;;;10.30;1.77;;;;;;;;;;5102231;27;20236;-52
2023/05/18 14:26:23;;;;;;;7.88;2.00;;;;;;;;;;5096475;27;20574;-53
2023/05/18 14:28:49;;;;;;;1.73;1.60;;;;;;;;;;5105292;27;20324;-53
2023/05/18 14:31:16;;;;;;;4.35;2.15;;;;;;;;;;5100997;27;20485;-54
2023/05/18 14:33:42;;;;;;;4.28;2.30;;;;;;;;;;5090195;27;20778;-52
2023/05/18 14:36:10;;;;;;;2.72;1.63;;;;;;;;;;5095352;27;20295;-54
2023/05/18 14:38:37;;;;;;;1.98;1.67;;;;;;;;;;5088999;27;20291;-52
2023/05/18 14:41:03;;;;;;;3.67;1.70;;;;;;;;;;5076350;28;20233;-53
2023/05/18 14:43:30;;;;;;;4.88;1.95;;;;;;;;;;5075162;28;20296;-52
2023/05/18 14:45:56;;;;;;;4.30;1.98;;;;;;;;;;5077362;28;20682;-53
2023/05/18 14:48:23;;;;;;;3.00;1.58;;;;;;;;;;5079863;28;20318;-52